Time;durP1;ratioP1;P1;durP2;ratioP2;P2;SDS_P1;SDS_P2;PMS_P1;PMS_P2;Temp;Humidity;BMP_temperature;BMP_pressure;BME280_temperature;BME280_humidity;BME280_pressure;Samples;Min_cycle;Max_cycle;Signal;HPM_P1;HPM_P2
2022/05/08 00:01:10;;;;;;;15.98;4.05;;;;;;;;;;4996988;28;20236;-19
2022/05/08 00:03:38;;;;;;;6.50;3.80;;;;;;;;;;5002142;28;20292;-19
2022/05/08 00:06:10;;;;;;;6.50;3.92;;;;;;;;;;5002869;28;21038;-19
2022/05/08 00:08:39;;;;;;;10.43;3.80;;;;;;;;;;4996110;28;20238;-19
2022/05/08 00:11:06;;;;;;;9.82;3.95;;;;;;;;;;4999201;28;20239;-19
2022/05/08 00:13:35;;;;;;;10.55;4.00;;;;;;;;;;4998543;28;20336;-19
2022/05/08 00:16:03;;;;;;;8.90;3.95;;;;;;;;;;4995279;28;20806;-19
2022/05/08 00:18:31;;;;;;;7.60;3.70;;;;;;;;;;4995226;28;20228;-19
2022/05/08 00:20:58;;;;;;;5.88;3.45;;;;;;;;;;5002301;28;20258;-19
2022/05/08 00:23:25;;;;;;;14.15;4.53;;;;;;;;;;4999215;28;20248;-18
2022/05/08 00:25:54;;;;;;;7.38;3.58;;;;;;;;;;4999776;28;20243;-19
2022/05/08 00:28:21;;;;;;;6.57;3.63;;;;;;;;;;5000111;28;20235;-19
2022/05/08 00:30:48;;;;;;;8.70;3.75;;;;;;;;;;5002810;28;20235;-17
2022/05/08 00:33:16;;;;;;;5.93;3.40;;;;;;;;;;4998805;28;20242;-18
2022/05/08 00:35:43;;;;;;;7.63;3.80;;;;;;;;;;4995109;28;20228;-19
2022/05/08 00:38:10;;;;;;;9.15;4.05;;;;;;;;;;4998340;28;20238;-18
2022/05/08 00:40:38;;;;;;;9.45;3.83;;;;;;;;;;4996867;28;20913;-17
2022/05/08 00:43:23;;;;;;;9.52;3.75;;;;;;;;;;5000716;28;20239;-18
2022/05/08 00:45:52;;;;;;;10.45;3.95;;;;;;;;;;4994723;28;20232;-18
2022/05/08 00:48:19;;;;;;;9.82;3.88;;;;;;;;;;4998210;28;20238;-18
2022/05/08 00:50:47;;;;;;;8.10;3.78;;;;;;;;;;5000210;28;20238;-17
2022/05/08 00:53:14;;;;;;;7.65;4.15;;;;;;;;;;5001060;28;20281;-18
2022/05/08 00:55:41;;;;;;;6.93;3.80;;;;;;;;;;4998892;28;20229;-17
2022/05/08 00:58:09;;;;;;;9.25;3.92;;;;;;;;;;5000814;28;20247;-17
2022/05/08 01:00:36;;;;;;;7.47;3.92;;;;;;;;;;4993562;28;20236;-17
2022/05/08 01:03:05;;;;;;;6.68;3.60;;;;;;;;;;5002025;28;20698;-17
2022/05/08 01:05:32;;;;;;;7.10;4.22;;;;;;;;;;4998136;28;20232;-17
2022/05/08 01:08:00;;;;;;;7.53;4.00;;;;;;;;;;4997947;28;20989;-18
2022/05/08 01:10:27;;;;;;;6.13;3.60;;;;;;;;;;4994632;28;20234;-18
2022/05/08 01:12:55;;;;;;;8.68;3.65;;;;;;;;;;4998684;28;20240;-17
2022/05/08 01:15:22;;;;;;;9.15;4.13;;;;;;;;;;5000111;28;20228;-17
2022/05/08 01:17:52;;;;;;;5.85;3.60;;;;;;;;;;4988491;28;20241;-17
2022/05/08 01:20:20;;;;;;;8.82;4.10;;;;;;;;;;4998121;28;20231;-17
2022/05/08 01:22:49;;;;;;;6.32;4.18;;;;;;;;;;5001446;28;20251;-19
2022/05/08 01:25:16;;;;;;;7.93;3.95;;;;;;;;;;5001373;28;20239;-17
2022/05/08 01:27:44;;;;;;;6.82;3.90;;;;;;;;;;5000476;28;20228;-18
2022/05/08 01:30:12;;;;;;;6.03;3.45;;;;;;;;;;5002683;28;20624;-17
2022/05/08 01:32:39;;;;;;;5.95;3.55;;;;;;;;;;5004495;28;20235;-17
2022/05/08 01:35:07;;;;;;;13.57;4.25;;;;;;;;;;5000814;28;20230;-17
2022/05/08 01:37:34;;;;;;;7.72;3.90;;;;;;;;;;4996718;28;20704;-17
2022/05/08 01:40:03;;;;;;;7.05;4.00;;;;;;;;;;4995177;28;20231;-17
2022/05/08 01:42:31;;;;;;;9.15;4.10;;;;;;;;;;4998855;28;20240;-18
2022/05/08 01:44:58;;;;;;;7.93;3.95;;;;;;;;;;5001839;28;20232;-17
2022/05/08 01:50:13;;;;;;;7.65;3.92;;;;;;;;;;4998331;28;20241;-20
2022/05/08 01:52:40;;;;;;;11.20;3.85;;;;;;;;;;5002009;28;20236;-19
2022/05/08 01:55:09;;;;;;;6.40;3.90;;;;;;;;;;5003205;28;20777;-19
2022/05/08 01:57:36;;;;;;;8.55;4.10;;;;;;;;;;5000771;28;20692;-19
2022/05/08 02:00:05;;;;;;;8.90;3.83;;;;;;;;;;5004028;28;20238;-19
2022/05/08 02:02:32;;;;;;;7.68;3.38;;;;;;;;;;4997556;28;20242;-19
2022/05/08 02:04:59;;;;;;;8.10;3.58;;;;;;;;;;5004639;28;20361;-19
2022/05/08 02:07:27;;;;;;;8.20;3.13;;;;;;;;;;5001505;28;20286;-18
2022/05/08 02:09:54;;;;;;;7.55;3.97;;;;;;;;;;5002973;28;21061;-19
2022/05/08 02:12:23;;;;;;;9.23;4.00;;;;;;;;;;4999358;28;20245;-19
2022/05/08 02:14:50;;;;;;;10.38;3.75;;;;;;;;;;5002935;28;20231;-19
2022/05/08 02:17:18;;;;;;;6.72;3.60;;;;;;;;;;5000894;28;20235;-19
2022/05/08 02:19:45;;;;;;;7.78;3.67;;;;;;;;;;5002170;28;20742;-19
2022/05/08 02:22:12;;;;;;;9.73;3.47;;;;;;;;;;5001876;28;20243;-18
2022/05/08 02:24:40;;;;;;;11.50;4.07;;;;;;;;;;5001031;28;20700;-19
2022/05/08 02:27:07;;;;;;;10.10;3.40;;;;;;;;;;5003933;28;20238;-19
2022/05/08 02:29:36;;;;;;;11.40;3.72;;;;;;;;;;5003082;28;20228;-19
2022/05/08 02:32:03;;;;;;;8.27;3.42;;;;;;;;;;4994105;28;20998;-19
2022/05/08 02:34:31;;;;;;;9.65;3.63;;;;;;;;;;5000057;28;20679;-19
2022/05/08 02:36:58;;;;;;;13.80;4.07;;;;;;;;;;5002149;28;20239;-19
2022/05/08 02:39:25;;;;;;;7.68;3.08;;;;;;;;;;5002177;28;20236;-19
2022/05/08 02:41:53;;;;;;;9.32;3.50;;;;;;;;;;4997763;28;21016;-19
2022/05/08 02:44:20;;;;;;;10.95;3.80;;;;;;;;;;4998823;28;20307;-19
2022/05/08 02:46:49;;;;;;;7.32;3.50;;;;;;;;;;5003280;28;21003;-19
2022/05/08 02:49:16;;;;;;;10.32;3.95;;;;;;;;;;5002268;28;20683;-18
2022/05/08 02:51:43;;;;;;;12.07;3.90;;;;;;;;;;5000125;28;20242;-18
2022/05/08 02:54:11;;;;;;;7.88;3.15;;;;;;;;;;4993156;28;20247;-18
2022/05/08 02:59:23;;;;;;;8.55;3.10;;;;;;;;;;5001112;28;20232;-19
2022/05/08 03:01:51;;;;;;;11.77;3.38;;;;;;;;;;5004076;28;20270;-19
2022/05/08 03:04:19;;;;;;;8.27;3.03;;;;;;;;;;5000940;28;20236;-18
2022/05/08 03:06:46;;;;;;;10.90;3.00;;;;;;;;;;4999547;28;20232;-18
2022/05/08 03:09:13;;;;;;;10.02;3.40;;;;;;;;;;5002570;28;20235;-18
2022/05/08 03:11:41;;;;;;;15.75;4.13;;;;;;;;;;4999042;28;20893;-19
2022/05/08 03:14:09;;;;;;;7.85;3.00;;;;;;;;;;5003019;28;20227;-18
2022/05/08 03:16:37;;;;;;;9.52;3.42;;;;;;;;;;4998959;28;20240;-19
2022/05/08 03:19:05;;;;;;;8.60;3.10;;;;;;;;;;5003489;28;20235;-19
2022/05/08 03:21:34;;;;;;;7.97;3.38;;;;;;;;;;5003470;28;20242;-19
2022/05/08 03:24:01;;;;;;;13.32;3.95;;;;;;;;;;4991461;28;20588;-19
2022/05/08 03:26:31;;;;;;;10.70;3.60;;;;;;;;;;5000102;28;20232;-18
2022/05/08 03:28:58;;;;;;;10.18;3.47;;;;;;;;;;5000939;28;20228;-19
2022/05/08 03:31:25;;;;;;;10.82;2.88;;;;;;;;;;5000093;28;21099;-19
2022/05/08 03:33:53;;;;;;;11.38;3.50;;;;;;;;;;4999753;28;20239;-19
2022/05/08 03:36:21;;;;;;;15.60;3.42;;;;;;;;;;4996626;28;20577;-19
2022/05/08 03:38:49;;;;;;;17.52;3.53;;;;;;;;;;4997865;28;20235;-19
2022/05/08 03:41:16;;;;;;;12.55;3.40;;;;;;;;;;5000172;28;20239;-19
2022/05/08 03:43:45;;;;;;;10.88;3.00;;;;;;;;;;5003659;28;20442;-19
2022/05/08 03:46:13;;;;;;;13.05;3.05;;;;;;;;;;4999667;28;20241;-18
2022/05/08 03:48:41;;;;;;;9.40;2.95;;;;;;;;;;4996656;28;20238;-19
2022/05/08 03:51:09;;;;;;;9.35;3.53;;;;;;;;;;5002178;28;20236;-18
2022/05/08 03:53:37;;;;;;;11.40;3.13;;;;;;;;;;4990589;28;20233;-18
2022/05/08 03:56:05;;;;;;;11.20;3.50;;;;;;;;;;5003039;28;20234;-19
2022/05/08 03:58:32;;;;;;;15.52;3.55;;;;;;;;;;4992773;28;20236;-19
2022/05/08 04:00:59;;;;;;;12.48;3.53;;;;;;;;;;5002196;28;20227;-19
2022/05/08 04:03:27;;;;;;;8.30;2.88;;;;;;;;;;4999858;28;20248;-19
2022/05/08 04:05:54;;;;;;;10.82;2.55;;;;;;;;;;5002050;28;20240;-19
2022/05/08 04:08:21;;;;;;;9.38;3.20;;;;;;;;;;5000545;28;20224;-19
2022/05/08 04:10:50;;;;;;;15.20;3.33;;;;;;;;;;4994752;28;20249;-19
2022/05/08 04:13:17;;;;;;;14.48;2.95;;;;;;;;;;4995274;28;20243;-18
2022/05/08 04:18:31;;;;;;;10.65;3.20;;;;;;;;;;4996912;28;20334;-19
2022/05/08 04:20:58;;;;;;;8.20;2.42;;;;;;;;;;4997597;28;20287;-18
2022/05/08 04:26:12;;;;;;;10.32;2.80;;;;;;;;;;4995450;28;20236;-19
2022/05/08 04:28:39;;;;;;;9.55;2.85;;;;;;;;;;4997762;28;20224;-19
2022/05/08 04:31:06;;;;;;;8.70;2.60;;;;;;;;;;5001521;28;20236;-19
2022/05/08 04:33:34;;;;;;;9.20;3.33;;;;;;;;;;5001105;28;20325;-19
2022/05/08 04:36:01;;;;;;;10.10;3.15;;;;;;;;;;4995025;28;20230;-18
2022/05/08 04:38:28;;;;;;;10.13;3.25;;;;;;;;;;4998207;28;20263;-18
2022/05/08 04:40:56;;;;;;;11.13;2.88;;;;;;;;;;5000586;28;20351;-18
2022/05/08 04:43:24;;;;;;;8.60;2.85;;;;;;;;;;4999355;28;20242;-18
2022/05/08 04:45:52;;;;;;;7.82;2.63;;;;;;;;;;5000909;28;20235;-19
2022/05/08 04:48:19;;;;;;;11.55;2.80;;;;;;;;;;5000385;28;20232;-19
2022/05/08 04:50:46;;;;;;;6.55;2.67;;;;;;;;;;5000154;28;20675;-18
2022/05/08 04:53:14;;;;;;;9.68;2.80;;;;;;;;;;5001072;28;20235;-19
2022/05/08 04:55:41;;;;;;;10.00;2.90;;;;;;;;;;5000830;28;20983;-19
2022/05/08 04:58:09;;;;;;;8.07;2.88;;;;;;;;;;4998429;28;20240;-19
2022/05/08 05:00:37;;;;;;;7.70;2.63;;;;;;;;;;4990447;28;20243;-18
2022/05/08 05:03:05;;;;;;;5.57;2.45;;;;;;;;;;4996338;28;20247;-19
2022/05/08 05:05:33;;;;;;;12.20;3.03;;;;;;;;;;4998925;28;20236;-18
2022/05/08 05:08:00;;;;;;;8.88;3.00;;;;;;;;;;4994031;28;20229;-19
2022/05/08 05:10:28;;;;;;;8.13;2.53;;;;;;;;;;4997811;28;20716;-18
2022/05/08 05:12:55;;;;;;;10.05;2.53;;;;;;;;;;5000574;28;20291;-19
2022/05/08 05:15:24;;;;;;;8.65;2.60;;;;;;;;;;5001409;28;20274;-19
2022/05/08 05:17:53;;;;;;;10.18;2.65;;;;;;;;;;4993811;28;20237;-19
2022/05/08 05:20:20;;;;;;;8.32;2.92;;;;;;;;;;4999710;28;20290;-19
2022/05/08 05:22:48;;;;;;;7.53;2.55;;;;;;;;;;5000333;28;20706;-19
2022/05/08 05:25:15;;;;;;;5.90;2.22;;;;;;;;;;5000033;28;20248;-18
2022/05/08 05:27:42;;;;;;;7.30;2.70;;;;;;;;;;5000681;28;20231;-19
2022/05/08 05:30:10;;;;;;;5.18;2.13;;;;;;;;;;4997468;28;20235;-18
2022/05/08 05:32:39;;;;;;;6.68;2.63;;;;;;;;;;5001262;28;20669;-18
2022/05/08 05:35:08;;;;;;;7.78;2.78;;;;;;;;;;4996467;28;20231;-19
2022/05/08 05:37:35;;;;;;;8.25;2.38;;;;;;;;;;4996360;28;20240;-19
2022/05/08 05:40:03;;;;;;;6.82;2.30;;;;;;;;;;4990066;28;20231;-19
2022/05/08 05:42:37;;;;;;;8.15;2.58;;;;;;;;;;4992749;28;20231;-19
2022/05/08 05:45:04;;;;;;;6.55;2.28;;;;;;;;;;4997922;28;20247;-19
2022/05/08 05:50:18;;;;;;;8.45;2.78;;;;;;;;;;4987875;28;20327;-19
2022/05/08 05:52:45;;;;;;;7.28;2.90;;;;;;;;;;4992105;28;20319;-19
2022/05/08 05:55:12;;;;;;;6.75;2.72;;;;;;;;;;4991470;28;20733;-19
2022/05/08 05:57:40;;;;;;;8.20;2.92;;;;;;;;;;4984837;28;20262;-19
2022/05/08 06:00:08;;;;;;;8.43;2.30;;;;;;;;;;4978775;28;20723;-19
2022/05/08 06:02:35;;;;;;;9.45;2.60;;;;;;;;;;4982623;28;20224;-19
2022/05/08 06:05:03;;;;;;;6.60;2.30;;;;;;;;;;4994756;28;20262;-18
2022/05/08 06:07:32;;;;;;;7.68;2.70;;;;;;;;;;4999052;28;20330;-18
2022/05/08 06:10:01;;;;;;;8.27;2.08;;;;;;;;;;5000833;28;20238;-19
2022/05/08 06:12:30;;;;;;;8.02;2.63;;;;;;;;;;4999901;28;20287;-19
2022/05/08 06:14:57;;;;;;;7.05;2.50;;;;;;;;;;5004060;28;20238;-19
2022/05/08 06:17:24;;;;;;;8.38;2.45;;;;;;;;;;5003931;28;20236;-19
2022/05/08 06:19:52;;;;;;;10.57;2.78;;;;;;;;;;5001243;28;20326;-18
2022/05/08 06:22:19;;;;;;;8.00;2.65;;;;;;;;;;5002241;28;20248;-18
2022/05/08 06:24:48;;;;;;;7.28;2.13;;;;;;;;;;4999392;28;20255;-18
2022/05/08 06:27:15;;;;;;;14.98;3.10;;;;;;;;;;5003067;28;20258;-18
2022/05/08 06:29:43;;;;;;;13.27;2.67;;;;;;;;;;5001511;28;20228;-19
2022/05/08 06:32:10;;;;;;;11.18;2.97;;;;;;;;;;4999280;28;20616;-19
2022/05/08 06:34:38;;;;;;;32.58;3.20;;;;;;;;;;5000730;28;20228;-18
2022/05/08 06:37:05;;;;;;;12.75;3.38;;;;;;;;;;5003698;28;20303;-19
2022/05/08 06:39:34;;;;;;;15.75;2.83;;;;;;;;;;4999705;28;20699;-19
2022/05/08 06:42:03;;;;;;;13.90;2.78;;;;;;;;;;4999690;28;20401;-19
2022/05/08 06:44:30;;;;;;;13.35;2.83;;;;;;;;;;5004362;28;21136;-18
2022/05/08 06:46:59;;;;;;;8.02;2.53;;;;;;;;;;4997024;28;20235;-19
2022/05/08 06:49:26;;;;;;;10.65;2.70;;;;;;;;;;5000125;28;20983;-19
2022/05/08 06:51:53;;;;;;;13.85;2.40;;;;;;;;;;5001122;28;21096;-19
2022/05/08 06:54:21;;;;;;;12.10;2.65;;;;;;;;;;4998039;28;20242;-19
2022/05/08 06:56:48;;;;;;;9.57;2.40;;;;;;;;;;4997303;28;21188;-19
2022/05/08 07:02:07;;;;;;;10.07;2.53;;;;;;;;;;4996147;28;20239;-18
2022/05/08 07:04:34;;;;;;;8.82;2.53;;;;;;;;;;4997407;28;20244;-19
2022/05/08 07:07:02;;;;;;;9.88;2.38;;;;;;;;;;4998385;28;20231;-18
2022/05/08 07:09:29;;;;;;;18.05;3.25;;;;;;;;;;4998558;28;20684;-19
2022/05/08 07:11:57;;;;;;;14.15;3.03;;;;;;;;;;4998316;28;20627;-19
2022/05/08 07:14:29;;;;;;;8.40;2.42;;;;;;;;;;5001415;28;20270;-19
2022/05/08 07:16:56;;;;;;;11.45;2.90;;;;;;;;;;5000900;28;20232;-18
2022/05/08 07:19:24;;;;;;;9.85;2.47;;;;;;;;;;4996199;28;20264;-19
2022/05/08 07:21:51;;;;;;;9.88;3.25;;;;;;;;;;4994795;28;20711;-19
2022/05/08 07:24:21;;;;;;;13.18;2.75;;;;;;;;;;4999692;28;20248;-19
2022/05/08 07:26:48;;;;;;;11.52;2.78;;;;;;;;;;4999811;28;20232;-19
2022/05/08 07:29:16;;;;;;;11.68;2.80;;;;;;;;;;4993824;28;20939;-19
2022/05/08 07:31:44;;;;;;;7.88;2.20;;;;;;;;;;4996663;28;20280;-19
2022/05/08 07:36:56;;;;;;;9.40;3.00;;;;;;;;;;4997099;28;20228;-19
2022/05/08 07:39:24;;;;;;;11.82;2.65;;;;;;;;;;4993578;28;20247;-19
2022/05/08 07:41:51;;;;;;;10.52;2.60;;;;;;;;;;4994778;28;20228;-19
2022/05/08 07:44:19;;;;;;;11.82;2.35;;;;;;;;;;4992486;28;20286;-19
2022/05/08 07:46:47;;;;;;;14.68;2.75;;;;;;;;;;4989321;28;20470;-19
2022/05/08 07:49:15;;;;;;;9.23;2.60;;;;;;;;;;4986992;28;20243;-18
2022/05/08 07:51:42;;;;;;;16.55;2.67;;;;;;;;;;4989047;28;20294;-18
2022/05/08 07:54:09;;;;;;;11.90;2.45;;;;;;;;;;4989859;28;20717;-19
2022/05/08 07:56:37;;;;;;;12.93;2.30;;;;;;;;;;4991419;28;20232;-18
2022/05/08 07:59:04;;;;;;;10.48;2.72;;;;;;;;;;4986098;28;20447;-19
2022/05/08 08:01:31;;;;;;;9.75;2.17;;;;;;;;;;4989318;28;20240;-19
2022/05/08 08:04:18;;;;;;;11.27;2.55;;;;;;;;;;4989086;28;20331;-19
2022/05/08 08:06:45;;;;;;;10.60;2.45;;;;;;;;;;4986002;28;20229;-18
2022/05/08 08:09:12;;;;;;;10.77;2.80;;;;;;;;;;4985641;28;20244;-19
2022/05/08 08:11:41;;;;;;;10.65;2.63;;;;;;;;;;4987141;28;21116;-19
2022/05/08 08:14:08;;;;;;;12.95;2.97;;;;;;;;;;4988162;28;20228;-18
2022/05/08 08:16:55;;;;;;;10.07;2.80;;;;;;;;;;4990815;28;20243;-19
2022/05/08 08:19:24;;;;;;;16.52;3.17;;;;;;;;;;4993405;28;20311;-18
2022/05/08 08:21:52;;;;;;;11.55;3.30;;;;;;;;;;4991335;28;20263;-18
2022/05/08 08:24:19;;;;;;;9.13;2.58;;;;;;;;;;4990743;28;20236;-19
2022/05/08 08:26:46;;;;;;;16.10;2.58;;;;;;;;;;4987506;28;20236;-19
2022/05/08 08:29:14;;;;;;;21.90;3.20;;;;;;;;;;4992703;28;20705;-19
2022/05/08 08:31:41;;;;;;;9.57;2.80;;;;;;;;;;4988240;28;20727;-19
2022/05/08 08:34:09;;;;;;;14.32;2.92;;;;;;;;;;4992862;28;20240;-19
2022/05/08 08:36:37;;;;;;;16.15;3.65;;;;;;;;;;4992910;28;20242;-19
2022/05/08 08:39:05;;;;;;;14.57;3.10;;;;;;;;;;4990007;28;20884;-19
2022/05/08 08:41:33;;;;;;;17.13;3.10;;;;;;;;;;4992860;28;20240;-19
2022/05/08 08:49:31;;;;;;;22.83;3.15;;;;;;;;;;4997100;28;20231;-19
2022/05/08 08:51:59;;;;;;;12.90;2.85;;;;;;;;;;4990118;28;20239;-19
2022/05/08 08:54:27;;;;;;;15.18;3.10;;;;;;;;;;4996993;28;20236;-19
2022/05/08 08:56:54;;;;;;;20.83;3.05;;;;;;;;;;4989769;28;20231;-19
2022/05/08 08:59:28;;;;;;;9.85;2.70;;;;;;;;;;4987581;28;20707;-20
2022/05/08 09:01:55;;;;;;;8.77;2.50;;;;;;;;;;4992605;28;20235;-20
2022/05/08 09:04:23;;;;;;;17.80;2.83;;;;;;;;;;4993562;28;20236;-18
2022/05/08 09:06:50;;;;;;;14.23;2.38;;;;;;;;;;4984145;28;20732;-18
2022/05/08 09:09:26;;;;;;;14.38;3.00;;;;;;;;;;4983854;28;20294;-19
2022/05/08 09:11:54;;;;;;;13.10;2.78;;;;;;;;;;4993152;28;20231;-19
2022/05/08 09:14:28;;;;;;;21.08;2.92;;;;;;;;;;4996437;28;20275;-19
2022/05/08 09:16:55;;;;;;;9.05;2.45;;;;;;;;;;4988510;28;21930;-19
2022/05/08 09:19:29;;;;;;;12.18;2.25;;;;;;;;;;4987119;28;20716;-19
2022/05/08 09:22:00;;;;;;;9.05;2.95;;;;;;;;;;4987710;28;20281;-19
2022/05/08 09:24:29;;;;;;;9.43;2.50;;;;;;;;;;4990590;28;20235;-18
2022/05/08 09:27:09;;;;;;;8.35;2.38;;;;;;;;;;4991373;28;20716;-19
2022/05/08 09:29:37;;;;;;;10.63;2.47;;;;;;;;;;4983896;28;20232;-19
2022/05/08 09:32:34;;;;;;;12.10;2.60;;;;;;;;;;4991842;28;20307;-19
2022/05/08 09:35:02;;;;;;;11.65;2.63;;;;;;;;;;4986557;28;20259;-21
2022/05/08 09:37:30;;;;;;;10.60;2.50;;;;;;;;;;4989460;28;20231;-19
2022/05/08 09:40:12;;;;;;;11.57;2.85;;;;;;;;;;4984917;28;20235;-19
2022/05/08 09:42:41;;;;;;;9.70;2.80;;;;;;;;;;4989607;28;20236;-19
2022/05/08 09:45:09;;;;;;;9.60;2.40;;;;;;;;;;4997305;28;20605;-19
2022/05/08 09:47:43;;;;;;;10.65;2.80;;;;;;;;;;4991229;28;20271;-19
2022/05/08 09:50:10;;;;;;;8.18;2.28;;;;;;;;;;4992169;28;20246;-19
2022/05/08 09:52:39;;;;;;;10.57;2.42;;;;;;;;;;4994077;28;20246;-19
2022/05/08 09:55:07;;;;;;;14.90;2.40;;;;;;;;;;4994729;28;21075;-19
2022/05/08 09:57:34;;;;;;;5.03;1.88;;;;;;;;;;4985435;28;20236;-20
2022/05/08 10:00:03;;;;;;;6.13;1.90;;;;;;;;;;4989157;28;20245;-19
2022/05/08 10:02:31;;;;;;;6.38;1.90;;;;;;;;;;4988064;28;20306;-19
2022/05/08 10:04:59;;;;;;;4.65;1.95;;;;;;;;;;4993003;28;21037;-19
2022/05/08 10:07:26;;;;;;;9.93;2.20;;;;;;;;;;4994208;28;20278;-20
2022/05/08 10:15:36;;;;;;;5.25;2.20;;;;;;;;;;4982959;28;20278;-20
2022/05/08 10:18:22;;;;;;;9.68;2.28;;;;;;;;;;4981843;28;20228;-19
2022/05/08 10:20:59;;;;;;;7.63;2.15;;;;;;;;;;4984799;28;20240;-19
2022/05/08 10:23:36;;;;;;;10.70;2.67;;;;;;;;;;4986565;28;21075;-20
2022/05/08 10:26:13;;;;;;;9.10;2.42;;;;;;;;;;4986836;28;20247;-18
2022/05/08 10:28:59;;;;;;;8.65;2.40;;;;;;;;;;4986344;28;20236;-19
2022/05/08 10:31:41;;;;;;;5.95;1.95;;;;;;;;;;4987949;28;20240;-19
2022/05/08 10:34:09;;;;;;;6.32;1.98;;;;;;;;;;4988366;28;20245;-19
2022/05/08 10:36:36;;;;;;;9.00;2.47;;;;;;;;;;4989835;28;20236;-19
2022/05/08 10:39:22;;;;;;;6.00;2.08;;;;;;;;;;4990405;28;20240;-19
2022/05/08 10:41:53;;;;;;;7.97;2.10;;;;;;;;;;4987309;28;20243;-20
2022/05/08 10:44:36;;;;;;;7.82;2.20;;;;;;;;;;4994309;28;20244;-20
2022/05/08 10:47:23;;;;;;;6.57;2.20;;;;;;;;;;4984533;28;20251;-19
2022/05/08 10:49:51;;;;;;;12.45;2.13;;;;;;;;;;4991937;28;20643;-20
2022/05/08 10:52:19;;;;;;;5.93;2.33;;;;;;;;;;4988863;28;20242;-20
2022/05/08 10:54:55;;;;;;;6.68;2.30;;;;;;;;;;4990163;28;20238;-20
2022/05/08 10:57:28;;;;;;;9.50;1.92;;;;;;;;;;4986707;28;20291;-21
2022/05/08 10:59:55;;;;;;;6.80;2.20;;;;;;;;;;4989679;28;20229;-21
2022/05/08 11:02:38;;;;;;;8.35;1.75;;;;;;;;;;4989098;28;20247;-20
2022/05/08 11:05:07;;;;;;;9.35;2.67;;;;;;;;;;4989109;28;21449;-20
2022/05/08 11:07:34;;;;;;;11.75;2.30;;;;;;;;;;4990309;28;20592;-20
2022/05/08 11:10:02;;;;;;;7.28;2.53;;;;;;;;;;4987693;28;20247;-20
2022/05/08 11:12:29;;;;;;;13.48;1.88;;;;;;;;;;4995868;28;20236;-21
2022/05/08 11:15:09;;;;;;;6.32;1.73;;;;;;;;;;4985472;28;20242;-19
2022/05/08 11:17:36;;;;;;;8.07;1.70;;;;;;;;;;4992493;28;20240;-20
2022/05/08 11:20:04;;;;;;;5.47;1.70;;;;;;;;;;4983621;28;20290;-21
2022/05/08 11:22:34;;;;;;;8.18;2.05;;;;;;;;;;4990077;28;20243;-20
2022/05/08 11:25:11;;;;;;;5.90;1.88;;;;;;;;;;4987135;28;20228;-21
2022/05/08 11:27:38;;;;;;;9.82;1.90;;;;;;;;;;4991854;28;20238;-20
2022/05/08 11:30:06;;;;;;;9.90;2.05;;;;;;;;;;4989375;28;20236;-20
2022/05/08 11:38:23;;;;;;;9.18;2.08;;;;;;;;;;4981388;28;20244;-21
2022/05/08 11:40:51;;;;;;;5.63;2.13;;;;;;;;;;4988579;28;20236;-19
2022/05/08 11:43:36;;;;;;;7.57;2.40;;;;;;;;;;4984987;28;20427;-20
2022/05/08 11:46:04;;;;;;;10.15;1.98;;;;;;;;;;4987984;28;20239;-21
2022/05/08 11:48:32;;;;;;;7.57;2.05;;;;;;;;;;4988769;28;20244;-21
2022/05/08 11:51:00;;;;;;;9.07;1.95;;;;;;;;;;4989226;28;20242;-19
2022/05/08 11:53:28;;;;;;;9.50;2.00;;;;;;;;;;4980616;28;20232;-20
2022/05/08 11:55:56;;;;;;;5.40;1.98;;;;;;;;;;4988859;28;20255;-21
2022/05/08 11:58:32;;;;;;;6.65;1.70;;;;;;;;;;4974618;28;20272;-22
2022/05/08 12:01:00;;;;;;;10.32;2.40;;;;;;;;;;4974796;28;20451;-21
2022/05/08 12:03:28;;;;;;;9.65;2.20;;;;;;;;;;4986314;28;20997;-22
2022/05/08 12:06:11;;;;;;;8.90;2.60;;;;;;;;;;4988972;28;20232;-21
2022/05/08 12:08:39;;;;;;;9.40;2.00;;;;;;;;;;4991392;28;20279;-21
2022/05/08 12:11:07;;;;;;;5.68;1.92;;;;;;;;;;4988651;28;20233;-21
2022/05/08 12:13:45;;;;;;;12.93;2.45;;;;;;;;;;4991485;28;21047;-21
2022/05/08 12:16:12;;;;;;;4.43;1.60;;;;;;;;;;4984228;28;20239;-21
2022/05/08 12:18:55;;;;;;;10.15;2.15;;;;;;;;;;4989619;28;20236;-20
2022/05/08 12:21:28;;;;;;;10.70;3.00;;;;;;;;;;4987719;28;20232;-21
2022/05/08 12:23:57;;;;;;;9.02;2.63;;;;;;;;;;4988845;28;20254;-21
2022/05/08 12:26:24;;;;;;;8.27;2.50;;;;;;;;;;4987228;28;20286;-21
2022/05/08 12:28:51;;;;;;;8.18;2.40;;;;;;;;;;4991930;28;20274;-20
2022/05/08 12:31:19;;;;;;;10.27;2.40;;;;;;;;;;4991219;28;20232;-21
2022/05/08 12:33:46;;;;;;;10.80;2.20;;;;;;;;;;4992717;28;20228;-20
2022/05/08 12:36:13;;;;;;;4.80;2.22;;;;;;;;;;4986451;28;22114;-21
2022/05/08 12:38:41;;;;;;;9.48;2.05;;;;;;;;;;4991802;28;20331;-21
2022/05/08 12:41:12;;;;;;;7.40;2.50;;;;;;;;;;4989007;28;20228;-21
2022/05/08 12:43:39;;;;;;;8.00;2.20;;;;;;;;;;4987560;28;20245;-21
2022/05/08 12:46:06;;;;;;;20.83;2.42;;;;;;;;;;4992275;28;21569;-20
2022/05/08 12:48:34;;;;;;;6.43;2.28;;;;;;;;;;4985574;28;20240;-21
2022/05/08 12:51:02;;;;;;;8.40;1.83;;;;;;;;;;4994569;28;21053;-21
2022/05/08 12:53:30;;;;;;;10.23;2.33;;;;;;;;;;4985860;28;20958;-21
2022/05/08 12:55:57;;;;;;;5.15;2.22;;;;;;;;;;4990383;28;20242;-21
2022/05/08 13:01:10;;;;;;;8.82;1.98;;;;;;;;;;4993974;28;20235;-21
2022/05/08 13:03:38;;;;;;;10.20;2.30;;;;;;;;;;4988497;28;20303;-21
2022/05/08 13:06:08;;;;;;;9.23;1.92;;;;;;;;;;4983314;28;20944;-19
2022/05/08 13:08:36;;;;;;;11.98;2.20;;;;;;;;;;4989478;28;20715;-20
2022/05/08 13:11:03;;;;;;;6.97;2.38;;;;;;;;;;4990732;28;20236;-20
2022/05/08 13:13:35;;;;;;;12.30;2.45;;;;;;;;;;4991277;28;20232;-20
2022/05/08 13:16:02;;;;;;;6.32;2.50;;;;;;;;;;4989108;28;20243;-21
2022/05/08 13:18:30;;;;;;;10.05;2.50;;;;;;;;;;4987804;28;20236;-19
2022/05/08 13:20:57;;;;;;;21.05;2.88;;;;;;;;;;4991354;28;20235;-18
2022/05/08 13:23:24;;;;;;;11.85;2.20;;;;;;;;;;4990070;28;20256;-19
2022/05/08 13:25:52;;;;;;;17.38;2.38;;;;;;;;;;4996546;28;20236;-19
2022/05/08 13:28:19;;;;;;;13.93;2.25;;;;;;;;;;4988487;28;20247;-19
2022/05/08 13:30:48;;;;;;;9.43;2.22;;;;;;;;;;4997278;28;20283;-19
2022/05/08 13:33:15;;;;;;;9.45;2.25;;;;;;;;;;4996838;28;20246;-19
2022/05/08 13:35:42;;;;;;;6.93;2.08;;;;;;;;;;5000056;28;20289;-19
2022/05/08 13:38:10;;;;;;;7.63;2.35;;;;;;;;;;4998018;28;20232;-19
2022/05/08 13:40:37;;;;;;;5.63;2.50;;;;;;;;;;4998544;28;20232;-19
2022/05/08 13:43:05;;;;;;;7.93;2.13;;;;;;;;;;4993876;28;20271;-20
2022/05/08 13:45:32;;;;;;;9.00;2.85;;;;;;;;;;4997737;28;20239;-19
2022/05/08 13:48:01;;;;;;;8.35;2.40;;;;;;;;;;5000109;28;20227;-19
2022/05/08 13:50:28;;;;;;;6.80;1.92;;;;;;;;;;5000194;28;20236;-19
2022/05/08 13:52:56;;;;;;;5.82;1.90;;;;;;;;;;5000795;28;20239;-19
2022/05/08 13:55:23;;;;;;;5.38;2.10;;;;;;;;;;4998502;28;20231;-19
2022/05/08 13:57:54;;;;;;;9.10;2.30;;;;;;;;;;5000451;28;20259;-19
2022/05/08 14:00:21;;;;;;;4.88;1.95;;;;;;;;;;4998912;28;20726;-18
2022/05/08 14:02:49;;;;;;;4.30;2.00;;;;;;;;;;5000086;28;20232;-19
2022/05/08 14:05:18;;;;;;;4.45;1.95;;;;;;;;;;4999211;28;20294;-19
2022/05/08 14:07:45;;;;;;;3.78;1.90;;;;;;;;;;4999151;28;20240;-19
2022/05/08 14:10:13;;;;;;;6.88;2.17;;;;;;;;;;5000131;28;20234;-19
2022/05/08 14:12:40;;;;;;;4.63;2.20;;;;;;;;;;4997767;28;20243;-19
2022/05/08 14:15:08;;;;;;;5.22;2.25;;;;;;;;;;4995580;28;20227;-19
2022/05/08 14:17:35;;;;;;;4.65;2.20;;;;;;;;;;4998194;28;20231;-20
2022/05/08 14:20:03;;;;;;;8.30;2.45;;;;;;;;;;4993803;28;20282;-19
2022/05/08 14:22:32;;;;;;;8.50;1.92;;;;;;;;;;4996764;28;20248;-19
2022/05/08 14:25:01;;;;;;;4.43;2.15;;;;;;;;;;4997290;28;20240;-19
2022/05/08 14:27:29;;;;;;;7.40;2.15;;;;;;;;;;4996381;28;20703;-20
2022/05/08 14:29:57;;;;;;;3.63;1.98;;;;;;;;;;5000409;28;20224;-19
2022/05/08 14:38:12;;;;;;;7.07;2.03;;;;;;;;;;4969428;28;20221;-19
2022/05/08 14:40:40;;;;;;;3.88;1.60;;;;;;;;;;4993184;28;20227;-20
2022/05/08 14:43:07;;;;;;;4.03;1.92;;;;;;;;;;4997681;28;20276;-19
2022/05/08 14:45:35;;;;;;;5.88;2.08;;;;;;;;;;5000092;28;20700;-19
2022/05/08 14:48:03;;;;;;;4.35;1.75;;;;;;;;;;4996821;28;20256;-19
2022/05/08 14:50:30;;;;;;;4.18;2.05;;;;;;;;;;4999779;28;20239;-19
2022/05/08 14:52:58;;;;;;;5.57;1.77;;;;;;;;;;5003693;28;20266;-19
2022/05/08 14:55:26;;;;;;;3.65;2.20;;;;;;;;;;5001371;28;20619;-17
2022/05/08 14:57:54;;;;;;;4.22;1.95;;;;;;;;;;4994177;28;20239;-19
2022/05/08 15:00:22;;;;;;;4.90;2.10;;;;;;;;;;5003231;28;20240;-19
2022/05/08 15:02:50;;;;;;;5.53;1.70;;;;;;;;;;5002017;28;20712;-17
2022/05/08 15:05:17;;;;;;;3.05;1.85;;;;;;;;;;4996513;28;20239;-18
2022/05/08 15:07:44;;;;;;;5.50;1.75;;;;;;;;;;5002815;28;20704;-18
2022/05/08 15:10:11;;;;;;;5.80;2.05;;;;;;;;;;4992226;28;20233;-18
2022/05/08 15:12:41;;;;;;;3.22;2.03;;;;;;;;;;4997765;28;20706;-18
2022/05/08 15:15:09;;;;;;;4.57;2.20;;;;;;;;;;5000116;28;20227;-18
2022/05/08 15:18:47;;;;;;;3.53;2.00;;;;;;;;;;5003593;28;20228;-18
2022/05/08 15:20:24;;;;;;;4.72;2.03;;;;;;;;;;5000270;28;20235;-18
2022/05/08 15:22:55;;;;;;;5.85;2.25;;;;;;;;;;5002406;28;20816;-19
2022/05/08 15:25:23;;;;;;;2.10;1.60;;;;;;;;;;4998892;28;20266;-20
2022/05/08 15:27:51;;;;;;;5.15;1.98;;;;;;;;;;4999640;28;20234;-20
2022/05/08 15:30:19;;;;;;;4.40;1.88;;;;;;;;;;4999164;28;20982;-17
2022/05/08 15:32:46;;;;;;;3.03;1.77;;;;;;;;;;4994802;28;20247;-20